sensor_id;sensor_type;location;lat;lon;timestamp;P1;durP1;ratioP1;P2;durP2;ratioP2
4616;SDS011;2321;42.704;23.384;2023-07-09T00:00:38;1112.27;;;749.97;;
4616;SDS011;2321;42.704;23.384;2023-07-09T00:03:07;1145.10;;;827.17;;
4616;SDS011;2321;42.704;23.384;2023-07-09T00:05:36;1124.13;;;771.37;;
4616;SDS011;2321;42.704;23.384;2023-07-09T00:08:03;1138.27;;;824.23;;
4616;SDS011;2321;42.704;23.384;2023-07-09T00:10:31;1088.93;;;698.03;;
4616;SDS011;2321;42.704;23.384;2023-07-09T00:12:59;1124.23;;;787.97;;
4616;SDS011;2321;42.704;23.384;2023-07-09T00:15:26;1145.57;;;839.77;;
4616;SDS011;2321;42.704;23.384;2023-07-09T00:17:53;1112.30;;;755.30;;
4616;SDS011;2321;42.704;23.384;2023-07-09T00:20:21;1139.33;;;827.60;;
4616;SDS011;2321;42.704;23.384;2023-07-09T00:22:48;1106.93;;;720.60;;
4616;SDS011;2321;42.704;23.384;2023-07-09T00:25:18;1092.37;;;716.00;;
4616;SDS011;2321;42.704;23.384;2023-07-09T00:27:45;1110.47;;;749.87;;
4616;SDS011;2321;42.704;23.384;2023-07-09T00:30:16;1116.20;;;783.80;;
4616;SDS011;2321;42.704;23.384;2023-07-09T00:32:47;1086.37;;;699.40;;
4616;SDS011;2321;42.704;23.384;2023-07-09T00:35:14;1077.97;;;809.83;;
4616;SDS011;2321;42.704;23.384;2023-07-09T00:37:43;1107.83;;;740.03;;
4616;SDS011;2321;42.704;23.384;2023-07-09T00:40:15;1141.27;;;837.83;;
4616;SDS011;2321;42.704;23.384;2023-07-09T00:42:44;1109.83;;;766.77;;
4616;SDS011;2321;42.704;23.384;2023-07-09T00:45:17;1104.93;;;726.30;;
4616;SDS011;2321;42.704;23.384;2023-07-09T00:47:48;1091.73;;;870.43;;
4616;SDS011;2321;42.704;23.384;2023-07-09T00:50:21;1101.83;;;725.50;;
4616;SDS011;2321;42.704;23.384;2023-07-09T00:52:58;1139.53;;;832.43;;
4616;SDS011;2321;42.704;23.384;2023-07-09T00:55:32;1126.07;;;788.30;;
4616;SDS011;2321;42.704;23.384;2023-07-09T00:58:05;1112.60;;;759.60;;
4616;SDS011;2321;42.704;23.384;2023-07-09T01:00:34;1116.67;;;760.40;;
4616;SDS011;2321;42.704;23.384;2023-07-09T01:03:11;1107.97;;;738.73;;
4616;SDS011;2321;42.704;23.384;2023-07-09T01:05:45;1120.00;;;731.70;;
4616;SDS011;2321;42.704;23.384;2023-07-09T01:08:18;1150.13;;;814.00;;
4616;SDS011;2321;42.704;23.384;2023-07-09T01:10:46;1100.73;;;720.27;;
4616;SDS011;2321;42.704;23.384;2023-07-09T01:13:14;1144.87;;;816.30;;
4616;SDS011;2321;42.704;23.384;2023-07-09T01:15:43;1122.27;;;780.17;;
4616;SDS011;2321;42.704;23.384;2023-07-09T01:18:11;1101.77;;;680.13;;
4616;SDS011;2321;42.704;23.384;2023-07-09T01:20:40;1095.60;;;669.33;;
4616;SDS011;2321;42.704;23.384;2023-07-09T01:23:10;1096.23;;;672.27;;
4616;SDS011;2321;42.704;23.384;2023-07-09T01:25:38;1076.80;;;662.43;;
4616;SDS011;2321;42.704;23.384;2023-07-09T01:28:11;1083.27;;;645.97;;
4616;SDS011;2321;42.704;23.384;2023-07-09T01:30:41;1079.40;;;625.30;;
4616;SDS011;2321;42.704;23.384;2023-07-09T01:33:08;1102.33;;;693.37;;
4616;SDS011;2321;42.704;23.384;2023-07-09T01:35:37;1070.00;;;607.63;;
4616;SDS011;2321;42.704;23.384;2023-07-09T01:38:07;1098.53;;;691.70;;
4616;SDS011;2321;42.704;23.384;2023-07-09T01:40:36;1064.93;;;582.60;;
4616;SDS011;2321;42.704;23.384;2023-07-09T01:43:03;1036.50;;;546.27;;
4616;SDS011;2321;42.704;23.384;2023-07-09T01:45:32;1051.73;;;588.10;;
4616;SDS011;2321;42.704;23.384;2023-07-09T01:48:01;1020.43;;;515.73;;
4616;SDS011;2321;42.704;23.384;2023-07-09T01:50:28;1013.93;;;498.43;;
4616;SDS011;2321;42.704;23.384;2023-07-09T01:52:55;1013.37;;;462.43;;
4616;SDS011;2321;42.704;23.384;2023-07-09T01:55:23;1054.23;;;546.07;;
4616;SDS011;2321;42.704;23.384;2023-07-09T01:57:52;989.97;;;448.97;;
4616;SDS011;2321;42.704;23.384;2023-07-09T02:00:19;983.73;;;415.60;;
4616;SDS011;2321;42.704;23.384;2023-07-09T02:02:46;990.67;;;410.23;;
4616;SDS011;2321;42.704;23.384;2023-07-09T02:05:14;1019.93;;;492.23;;
4616;SDS011;2321;42.704;23.384;2023-07-09T02:07:42;1012.57;;;453.27;;
4616;SDS011;2321;42.704;23.384;2023-07-09T02:10:10;996.33;;;455.27;;
4616;SDS011;2321;42.704;23.384;2023-07-09T02:12:37;976.63;;;478.10;;
4616;SDS011;2321;42.704;23.384;2023-07-09T02:15:06;1031.43;;;606.73;;
4616;SDS011;2321;42.704;23.384;2023-07-09T02:17:34;956.50;;;388.30;;
4616;SDS011;2321;42.704;23.384;2023-07-09T02:20:01;1010.87;;;553.50;;
4616;SDS011;2321;42.704;23.384;2023-07-09T02:22:30;1013.47;;;566.73;;
4616;SDS011;2321;42.704;23.384;2023-07-09T02:24:57;1015.47;;;482.23;;
4616;SDS011;2321;42.704;23.384;2023-07-09T02:27:25;1080.97;;;590.87;;
4616;SDS011;2321;42.704;23.384;2023-07-09T02:29:53;977.27;;;420.20;;
4616;SDS011;2321;42.704;23.384;2023-07-09T02:32:22;989.03;;;442.03;;
4616;SDS011;2321;42.704;23.384;2023-07-09T02:34:51;967.00;;;412.03;;
4616;SDS011;2321;42.704;23.384;2023-07-09T02:37:19;972.07;;;403.60;;
4616;SDS011;2321;42.704;23.384;2023-07-09T02:39:47;978.13;;;405.53;;
4616;SDS011;2321;42.704;23.384;2023-07-09T02:42:15;988.40;;;451.37;;
4616;SDS011;2321;42.704;23.384;2023-07-09T02:44:43;974.87;;;429.43;;
4616;SDS011;2321;42.704;23.384;2023-07-09T02:47:11;975.03;;;429.03;;
4616;SDS011;2321;42.704;23.384;2023-07-09T02:49:40;967.17;;;419.87;;
4616;SDS011;2321;42.704;23.384;2023-07-09T02:52:07;974.20;;;425.77;;
4616;SDS011;2321;42.704;23.384;2023-07-09T02:54:34;987.53;;;460.07;;
4616;SDS011;2321;42.704;23.384;2023-07-09T02:57:02;972.67;;;432.10;;
4616;SDS011;2321;42.704;23.384;2023-07-09T02:59:29;1010.10;;;519.20;;
4616;SDS011;2321;42.704;23.384;2023-07-09T03:01:56;979.50;;;442.97;;
4616;SDS011;2321;42.704;23.384;2023-07-09T03:04:23;1013.50;;;518.90;;
4616;SDS011;2321;42.704;23.384;2023-07-09T03:06:51;1007.50;;;517.97;;
4616;SDS011;2321;42.704;23.384;2023-07-09T03:09:18;986.50;;;444.10;;
4616;SDS011;2321;42.704;23.384;2023-07-09T03:11:46;997.20;;;459.77;;
4616;SDS011;2321;42.704;23.384;2023-07-09T03:14:13;1015.27;;;483.47;;
4616;SDS011;2321;42.704;23.384;2023-07-09T03:16:41;1044.97;;;514.73;;
4616;SDS011;2321;42.704;23.384;2023-07-09T03:19:08;1052.70;;;524.83;;
4616;SDS011;2321;42.704;23.384;2023-07-09T03:21:35;1071.83;;;580.27;;
4616;SDS011;2321;42.704;23.384;2023-07-09T03:24:03;1043.53;;;521.77;;
4616;SDS011;2321;42.704;23.384;2023-07-09T03:26:31;1005.60;;;470.20;;
4616;SDS011;2321;42.704;23.384;2023-07-09T03:28:58;993.10;;;453.97;;
4616;SDS011;2321;42.704;23.384;2023-07-09T03:31:25;1006.73;;;490.83;;
4616;SDS011;2321;42.704;23.384;2023-07-09T03:33:52;997.43;;;488.13;;
4616;SDS011;2321;42.704;23.384;2023-07-09T03:36:20;982.57;;;449.43;;
4616;SDS011;2321;42.704;23.384;2023-07-09T03:38:46;992.00;;;472.70;;
4616;SDS011;2321;42.704;23.384;2023-07-09T03:41:15;986.63;;;452.17;;
4616;SDS011;2321;42.704;23.384;2023-07-09T03:43:42;992.67;;;471.77;;
4616;SDS011;2321;42.704;23.384;2023-07-09T03:46:09;1028.00;;;529.33;;
4616;SDS011;2321;42.704;23.384;2023-07-09T03:48:36;1016.47;;;498.43;;
4616;SDS011;2321;42.704;23.384;2023-07-09T03:51:03;1018.60;;;488.93;;
4616;SDS011;2321;42.704;23.384;2023-07-09T03:53:30;1030.23;;;505.40;;
4616;SDS011;2321;42.704;23.384;2023-07-09T03:55:57;1045.93;;;529.93;;
4616;SDS011;2321;42.704;23.384;2023-07-09T03:58:26;1064.47;;;591.70;;
4616;SDS011;2321;42.704;23.384;2023-07-09T04:00:53;1037.80;;;515.50;;
4616;SDS011;2321;42.704;23.384;2023-07-09T04:03:21;1088.83;;;642.63;;
4616;SDS011;2321;42.704;23.384;2023-07-09T04:05:48;1099.80;;;642.60;;
4616;SDS011;2321;42.704;23.384;2023-07-09T04:08:15;1068.03;;;565.67;;
4616;SDS011;2321;42.704;23.384;2023-07-09T04:10:42;1078.23;;;609.37;;
4616;SDS011;2321;42.704;23.384;2023-07-09T04:13:09;1054.97;;;545.10;;
4616;SDS011;2321;42.704;23.384;2023-07-09T04:15:37;1065.50;;;545.17;;
4616;SDS011;2321;42.704;23.384;2023-07-09T04:18:04;1062.70;;;535.33;;
4616;SDS011;2321;42.704;23.384;2023-07-09T04:20:31;1054.87;;;525.23;;
4616;SDS011;2321;42.704;23.384;2023-07-09T04:23:00;1061.10;;;550.93;;
4616;SDS011;2321;42.704;23.384;2023-07-09T04:25:27;1082.77;;;632.97;;
4616;SDS011;2321;42.704;23.384;2023-07-09T04:27:54;1076.10;;;586.87;;
4616;SDS011;2321;42.704;23.384;2023-07-09T04:30:20;1115.93;;;700.63;;
4616;SDS011;2321;42.704;23.384;2023-07-09T04:32:49;962.30;;;581.77;;
4616;SDS011;2321;42.704;23.384;2023-07-09T04:35:16;854.73;;;575.83;;
4616;SDS011;2321;42.704;23.384;2023-07-09T04:37:43;938.27;;;582.07;;
4616;SDS011;2321;42.704;23.384;2023-07-09T04:40:11;1056.33;;;602.77;;
4616;SDS011;2321;42.704;23.384;2023-07-09T04:42:39;1006.60;;;579.63;;
4616;SDS011;2321;42.704;23.384;2023-07-09T04:45:06;919.87;;;618.63;;
4616;SDS011;2321;42.704;23.384;2023-07-09T04:47:35;779.50;;;586.23;;
4616;SDS011;2321;42.704;23.384;2023-07-09T04:50:04;758.50;;;593.77;;
4616;SDS011;2321;42.704;23.384;2023-07-09T04:52:33;753.53;;;671.93;;
4616;SDS011;2321;42.704;23.384;2023-07-09T04:55:00;718.27;;;641.43;;
4616;SDS011;2321;42.704;23.384;2023-07-09T04:57:27;770.97;;;686.30;;
4616;SDS011;2321;42.704;23.384;2023-07-09T04:59:54;930.73;;;670.43;;
4616;SDS011;2321;42.704;23.384;2023-07-09T05:02:21;1012.07;;;634.93;;
4616;SDS011;2321;42.704;23.384;2023-07-09T05:04:48;1078.03;;;679.23;;
4616;SDS011;2321;42.704;23.384;2023-07-09T05:07:17;1010.77;;;650.93;;
4616;SDS011;2321;42.704;23.384;2023-07-09T05:09:43;923.43;;;679.50;;
4616;SDS011;2321;42.704;23.384;2023-07-09T05:12:10;1060.53;;;692.67;;
4616;SDS011;2321;42.704;23.384;2023-07-09T05:14:37;1062.30;;;666.00;;
4616;SDS011;2321;42.704;23.384;2023-07-09T05:17:04;1038.43;;;610.70;;
4616;SDS011;2321;42.704;23.384;2023-07-09T05:19:32;1050.90;;;602.90;;
4616;SDS011;2321;42.704;23.384;2023-07-09T05:21:59;1021.47;;;552.07;;
4616;SDS011;2321;42.704;23.384;2023-07-09T05:24:27;1071.53;;;633.33;;
4616;SDS011;2321;42.704;23.384;2023-07-09T05:26:54;1059.97;;;595.63;;
4616;SDS011;2321;42.704;23.384;2023-07-09T05:29:21;1022.77;;;547.67;;
4616;SDS011;2321;42.704;23.384;2023-07-09T05:31:48;1039.07;;;586.83;;
4616;SDS011;2321;42.704;23.384;2023-07-09T05:34:15;1050.60;;;630.83;;
4616;SDS011;2321;42.704;23.384;2023-07-09T05:36:42;1041.20;;;599.17;;
4616;SDS011;2321;42.704;23.384;2023-07-09T05:39:09;1024.70;;;561.40;;
4616;SDS011;2321;42.704;23.384;2023-07-09T05:41:38;1032.13;;;606.77;;
4616;SDS011;2321;42.704;23.384;2023-07-09T05:44:05;1079.27;;;660.17;;
4616;SDS011;2321;42.704;23.384;2023-07-09T05:46:33;1089.93;;;703.83;;
4616;SDS011;2321;42.704;23.384;2023-07-09T05:49:02;1048.20;;;632.87;;
4616;SDS011;2321;42.704;23.384;2023-07-09T05:51:29;1043.20;;;622.07;;
4616;SDS011;2321;42.704;23.384;2023-07-09T05:53:56;1020.67;;;581.80;;
4616;SDS011;2321;42.704;23.384;2023-07-09T05:56:23;1033.87;;;621.67;;
4616;SDS011;2321;42.704;23.384;2023-07-09T05:58:51;1046.67;;;641.07;;
4616;SDS011;2321;42.704;23.384;2023-07-09T06:01:18;1109.67;;;756.57;;
4616;SDS011;2321;42.704;23.384;2023-07-09T06:03:46;1085.67;;;726.00;;
4616;SDS011;2321;42.704;23.384;2023-07-09T06:06:14;1065.60;;;693.30;;
4616;SDS011;2321;42.704;23.384;2023-07-09T06:08:41;1108.83;;;799.30;;
4616;SDS011;2321;42.704;23.384;2023-07-09T06:11:08;1101.73;;;736.60;;
4616;SDS011;2321;42.704;23.384;2023-07-09T06:13:35;1086.53;;;771.13;;
4616;SDS011;2321;42.704;23.384;2023-07-09T06:16:04;1108.43;;;750.30;;
4616;SDS011;2321;42.704;23.384;2023-07-09T06:18:30;964.10;;;778.27;;
4616;SDS011;2321;42.704;23.384;2023-07-09T06:20:58;1065.50;;;774.13;;
4616;SDS011;2321;42.704;23.384;2023-07-09T06:23:27;1128.50;;;812.83;;
4616;SDS011;2321;42.704;23.384;2023-07-09T06:25:54;1109.10;;;764.27;;
4616;SDS011;2321;42.704;23.384;2023-07-09T06:28:21;1152.50;;;869.10;;
4616;SDS011;2321;42.704;23.384;2023-07-09T06:30:49;1124.40;;;797.80;;
4616;SDS011;2321;42.704;23.384;2023-07-09T06:33:18;1160.77;;;895.93;;
4616;SDS011;2321;42.704;23.384;2023-07-09T06:35:46;1122.67;;;794.37;;
4616;SDS011;2321;42.704;23.384;2023-07-09T06:38:14;1125.00;;;814.20;;
4616;SDS011;2321;42.704;23.384;2023-07-09T06:40:41;1149.93;;;872.93;;
4616;SDS011;2321;42.704;23.384;2023-07-09T06:43:08;1180.57;;;948.47;;
4616;SDS011;2321;42.704;23.384;2023-07-09T06:45:35;1152.23;;;877.67;;
4616;SDS011;2321;42.704;23.384;2023-07-09T06:48:02;1167.40;;;904.47;;
4616;SDS011;2321;42.704;23.384;2023-07-09T06:50:33;1145.30;;;874.27;;
4616;SDS011;2321;42.704;23.384;2023-07-09T06:53:01;1130.00;;;835.40;;
4616;SDS011;2321;42.704;23.384;2023-07-09T06:55:28;1172.47;;;912.27;;
4616;SDS011;2321;42.704;23.384;2023-07-09T06:57:55;1146.87;;;876.73;;
4616;SDS011;2321;42.704;23.384;2023-07-09T07:00:22;1173.97;;;968.97;;
4616;SDS011;2321;42.704;23.384;2023-07-09T07:02:49;1174.30;;;935.00;;
4616;SDS011;2321;42.704;23.384;2023-07-09T07:05:16;1135.13;;;849.70;;
4616;SDS011;2321;42.704;23.384;2023-07-09T07:07:45;1102.80;;;806.60;;
4616;SDS011;2321;42.704;23.384;2023-07-09T07:10:12;1133.90;;;902.83;;
4616;SDS011;2321;42.704;23.384;2023-07-09T07:12:42;1146.97;;;899.10;;
4616;SDS011;2321;42.704;23.384;2023-07-09T07:15:11;1141.73;;;894.47;;
4616;SDS011;2321;42.704;23.384;2023-07-09T07:17:39;1114.97;;;843.73;;
4616;SDS011;2321;42.704;23.384;2023-07-09T07:20:09;1115.33;;;828.63;;
4616;SDS011;2321;42.704;23.384;2023-07-09T07:22:38;1145.53;;;917.30;;
4616;SDS011;2321;42.704;23.384;2023-07-09T07:25:07;1123.57;;;867.30;;
4616;SDS011;2321;42.704;23.384;2023-07-09T07:27:35;1147.07;;;905.07;;
4616;SDS011;2321;42.704;23.384;2023-07-09T07:30:06;1155.00;;;911.73;;
4616;SDS011;2321;42.704;23.384;2023-07-09T07:32:35;1154.80;;;961.53;;
4616;SDS011;2321;42.704;23.384;2023-07-09T07:35:04;1142.63;;;924.17;;
4616;SDS011;2321;42.704;23.384;2023-07-09T07:37:31;1123.40;;;880.30;;
4616;SDS011;2321;42.704;23.384;2023-07-09T07:39:58;1179.40;;;952.33;;
4616;SDS011;2321;42.704;23.384;2023-07-09T07:42:26;1141.33;;;882.83;;
4616;SDS011;2321;42.704;23.384;2023-07-09T07:44:53;1159.53;;;946.00;;
4616;SDS011;2321;42.704;23.384;2023-07-09T07:47:20;1164.47;;;972.93;;
4616;SDS011;2321;42.704;23.384;2023-07-09T07:49:47;1137.03;;;899.43;;
4616;SDS011;2321;42.704;23.384;2023-07-09T07:52:14;1162.07;;;955.17;;
4616;SDS011;2321;42.704;23.384;2023-07-09T07:54:41;1139.20;;;885.07;;
4616;SDS011;2321;42.704;23.384;2023-07-09T07:57:08;1184.70;;;973.93;;
4616;SDS011;2321;42.704;23.384;2023-07-09T07:59:37;1162.43;;;942.57;;
4616;SDS011;2321;42.704;23.384;2023-07-09T08:02:05;1182.33;;;996.23;;
4616;SDS011;2321;42.704;23.384;2023-07-09T08:04:37;1158.63;;;911.03;;
4616;SDS011;2321;42.704;23.384;2023-07-09T08:07:05;1161.10;;;940.43;;
4616;SDS011;2321;42.704;23.384;2023-07-09T08:09:32;1147.37;;;911.80;;
4616;SDS011;2321;42.704;23.384;2023-07-09T08:11:59;1151.27;;;909.90;;
4616;SDS011;2321;42.704;23.384;2023-07-09T08:14:27;1194.23;;;993.77;;
4616;SDS011;2321;42.704;23.384;2023-07-09T08:16:55;1204.63;;;999.90;;
4616;SDS011;2321;42.704;23.384;2023-07-09T08:19:22;1177.00;;;968.93;;
4616;SDS011;2321;42.704;23.384;2023-07-09T08:21:49;1220.53;;;999.90;;
4616;SDS011;2321;42.704;23.384;2023-07-09T08:24:16;1203.00;;;999.90;;
4616;SDS011;2321;42.704;23.384;2023-07-09T08:26:43;1181.93;;;985.73;;
4616;SDS011;2321;42.704;23.384;2023-07-09T08:29:10;1142.30;;;935.37;;
4616;SDS011;2321;42.704;23.384;2023-07-09T08:31:37;1135.67;;;963.50;;
4616;SDS011;2321;42.704;23.384;2023-07-09T08:34:08;1134.20;;;932.37;;
4616;SDS011;2321;42.704;23.384;2023-07-09T08:36:35;1152.53;;;938.90;;
4616;SDS011;2321;42.704;23.384;2023-07-09T08:39:02;1111.73;;;894.90;;
4616;SDS011;2321;42.704;23.384;2023-07-09T08:41:35;1139.17;;;946.70;;
4616;SDS011;2321;42.704;23.384;2023-07-09T08:44:09;1138.87;;;939.63;;
4616;SDS011;2321;42.704;23.384;2023-07-09T08:47:00;1178.37;;;999.90;;
4616;SDS011;2321;42.704;23.384;2023-07-09T08:49:37;1171.03;;;999.90;;
4616;SDS011;2321;42.704;23.384;2023-07-09T08:52:09;1120.97;;;908.83;;
4616;SDS011;2321;42.704;23.384;2023-07-09T08:54:41;1135.20;;;935.40;;
4616;SDS011;2321;42.704;23.384;2023-07-09T08:57:14;1106.07;;;882.03;;
4616;SDS011;2321;42.704;23.384;2023-07-09T08:59:48;1134.93;;;940.73;;
4616;SDS011;2321;42.704;23.384;2023-07-09T09:02:22;1185.90;;;999.90;;
4616;SDS011;2321;42.704;23.384;2023-07-09T09:04:58;1201.17;;;999.90;;
4616;SDS011;2321;42.704;23.384;2023-07-09T09:07:28;1238.47;;;999.90;;
4616;SDS011;2321;42.704;23.384;2023-07-09T09:10:04;1234.83;;;999.90;;
4616;SDS011;2321;42.704;23.384;2023-07-09T09:12:35;1097.23;;;976.87;;
4616;SDS011;2321;42.704;23.384;2023-07-09T09:15:10;1150.80;;;983.13;;
4616;SDS011;2321;42.704;23.384;2023-07-09T09:17:43;1186.90;;;999.90;;
4616;SDS011;2321;42.704;23.384;2023-07-09T09:20:15;1184.07;;;999.90;;
4616;SDS011;2321;42.704;23.384;2023-07-09T09:22:44;1118.07;;;945.63;;
4616;SDS011;2321;42.704;23.384;2023-07-09T09:25:17;1154.23;;;983.10;;
4616;SDS011;2321;42.704;23.384;2023-07-09T09:27:50;1165.10;;;997.20;;
4616;SDS011;2321;42.704;23.384;2023-07-09T09:30:18;1192.83;;;999.90;;
4616;SDS011;2321;42.704;23.384;2023-07-09T09:32:47;1205.87;;;999.90;;
4616;SDS011;2321;42.704;23.384;2023-07-09T09:35:25;1209.43;;;999.90;;
4616;SDS011;2321;42.704;23.384;2023-07-09T09:38:02;1209.73;;;999.90;;
4616;SDS011;2321;42.704;23.384;2023-07-09T09:40:36;1164.17;;;999.90;;
4616;SDS011;2321;42.704;23.384;2023-07-09T09:43:12;1156.80;;;973.50;;
4616;SDS011;2321;42.704;23.384;2023-07-09T09:45:41;1126.03;;;944.70;;
4616;SDS011;2321;42.704;23.384;2023-07-09T09:48:14;1135.80;;;976.23;;
4616;SDS011;2321;42.704;23.384;2023-07-09T09:50:44;1186.93;;;999.90;;
4616;SDS011;2321;42.704;23.384;2023-07-09T09:53:16;1134.40;;;938.27;;
4616;SDS011;2321;42.704;23.384;2023-07-09T09:55:50;1158.60;;;974.03;;
4616;SDS011;2321;42.704;23.384;2023-07-09T09:58:18;1154.63;;;999.90;;
4616;SDS011;2321;42.704;23.384;2023-07-09T10:00:49;1156.37;;;988.67;;
4616;SDS011;2321;42.704;23.384;2023-07-09T10:03:18;1176.20;;;999.90;;
4616;SDS011;2321;42.704;23.384;2023-07-09T10:05:48;1160.33;;;999.90;;
4616;SDS011;2321;42.704;23.384;2023-07-09T10:08:22;1141.13;;;999.90;;
4616;SDS011;2321;42.704;23.384;2023-07-09T10:11:07;1200.83;;;999.90;;
4616;SDS011;2321;42.704;23.384;2023-07-09T10:13:39;1148.83;;;998.57;;
4616;SDS011;2321;42.704;23.384;2023-07-09T10:16:10;1153.90;;;996.63;;
4616;SDS011;2321;42.704;23.384;2023-07-09T10:18:44;1137.70;;;952.43;;
4616;SDS011;2321;42.704;23.384;2023-07-09T10:21:21;1139.70;;;956.00;;
4616;SDS011;2321;42.704;23.384;2023-07-09T10:23:58;1152.87;;;988.57;;
4616;SDS011;2321;42.704;23.384;2023-07-09T10:26:38;1193.47;;;999.90;;
4616;SDS011;2321;42.704;23.384;2023-07-09T10:32:06;1213.00;;;999.90;;
4616;SDS011;2321;42.704;23.384;2023-07-09T10:34:47;1185.50;;;999.90;;
4616;SDS011;2321;42.704;23.384;2023-07-09T10:37:35;1206.83;;;999.90;;
4616;SDS011;2321;42.704;23.384;2023-07-09T10:40:21;1229.70;;;999.90;;
4616;SDS011;2321;42.704;23.384;2023-07-09T10:42:54;1210.33;;;999.90;;
4616;SDS011;2321;42.704;23.384;2023-07-09T10:45:28;1214.40;;;999.90;;
4616;SDS011;2321;42.704;23.384;2023-07-09T10:47:58;1229.77;;;999.90;;
4616;SDS011;2321;42.704;23.384;2023-07-09T10:50:30;1295.47;;;999.90;;
4616;SDS011;2321;42.704;23.384;2023-07-09T10:53:03;1199.97;;;999.90;;
4616;SDS011;2321;42.704;23.384;2023-07-09T10:55:39;1180.60;;;997.60;;
4616;SDS011;2321;42.704;23.384;2023-07-09T10:58:17;1189.57;;;999.90;;
4616;SDS011;2321;42.704;23.384;2023-07-09T11:00:50;1198.97;;;999.90;;
4616;SDS011;2321;42.704;23.384;2023-07-09T11:03:19;1172.53;;;999.90;;
4616;SDS011;2321;42.704;23.384;2023-07-09T11:05:49;1193.97;;;999.90;;
4616;SDS011;2321;42.704;23.384;2023-07-09T11:08:20;1168.87;;;999.90;;
4616;SDS011;2321;42.704;23.384;2023-07-09T11:10:52;1178.23;;;999.90;;
4616;SDS011;2321;42.704;23.384;2023-07-09T11:13:24;1192.67;;;999.90;;
4616;SDS011;2321;42.704;23.384;2023-07-09T11:16:00;1183.33;;;999.90;;
4616;SDS011;2321;42.704;23.384;2023-07-09T11:18:30;1189.10;;;999.90;;
4616;SDS011;2321;42.704;23.384;2023-07-09T11:21:01;1206.80;;;999.90;;
4616;SDS011;2321;42.704;23.384;2023-07-09T11:23:43;1236.53;;;999.90;;
4616;SDS011;2321;42.704;23.384;2023-07-09T11:26:13;1166.53;;;998.30;;
4616;SDS011;2321;42.704;23.384;2023-07-09T11:28:51;1131.20;;;967.43;;
4616;SDS011;2321;42.704;23.384;2023-07-09T11:31:24;1161.57;;;998.47;;
4616;SDS011;2321;42.704;23.384;2023-07-09T11:34:01;1174.23;;;999.90;;
4616;SDS011;2321;42.704;23.384;2023-07-09T11:36:35;1217.93;;;999.90;;
4616;SDS011;2321;42.704;23.384;2023-07-09T11:39:18;1202.43;;;999.90;;
4616;SDS011;2321;42.704;23.384;2023-07-09T11:41:47;1186.23;;;999.90;;
4616;SDS011;2321;42.704;23.384;2023-07-09T11:44:18;902.30;;;826.63;;
4616;SDS011;2321;42.704;23.384;2023-07-09T11:46:58;752.67;;;690.10;;
4616;SDS011;2321;42.704;23.384;2023-07-09T11:49:39;1153.77;;;999.90;;
4616;SDS011;2321;42.704;23.384;2023-07-09T11:52:13;1120.83;;;976.83;;
4616;SDS011;2321;42.704;23.384;2023-07-09T11:54:46;1172.30;;;999.90;;
4616;SDS011;2321;42.704;23.384;2023-07-09T11:57:12;1237.60;;;999.90;;
4616;SDS011;2321;42.704;23.384;2023-07-09T11:59:40;1204.20;;;999.90;;
4616;SDS011;2321;42.704;23.384;2023-07-09T12:02:15;1164.60;;;999.90;;
4616;SDS011;2321;42.704;23.384;2023-07-09T12:04:46;1213.23;;;999.90;;
4616;SDS011;2321;42.704;23.384;2023-07-09T12:07:15;1196.70;;;999.90;;
4616;SDS011;2321;42.704;23.384;2023-07-09T12:09:49;1269.80;;;999.90;;
4616;SDS011;2321;42.704;23.384;2023-07-09T12:12:19;1260.33;;;999.90;;
4616;SDS011;2321;42.704;23.384;2023-07-09T12:14:47;1229.93;;;999.90;;
4616;SDS011;2321;42.704;23.384;2023-07-09T12:17:15;1208.50;;;999.90;;
4616;SDS011;2321;42.704;23.384;2023-07-09T12:19:41;1174.77;;;999.90;;
4616;SDS011;2321;42.704;23.384;2023-07-09T12:22:10;1184.27;;;999.90;;
4616;SDS011;2321;42.704;23.384;2023-07-09T12:24:42;1259.63;;;999.90;;
4616;SDS011;2321;42.704;23.384;2023-07-09T12:27:22;1190.03;;;999.90;;
4616;SDS011;2321;42.704;23.384;2023-07-09T12:29:52;1182.23;;;999.90;;
4616;SDS011;2321;42.704;23.384;2023-07-09T12:32:20;1221.30;;;999.90;;
4616;SDS011;2321;42.704;23.384;2023-07-09T12:34:52;1243.90;;;999.90;;
4616;SDS011;2321;42.704;23.384;2023-07-09T12:37:20;1214.53;;;999.90;;
4616;SDS011;2321;42.704;23.384;2023-07-09T12:39:49;1257.07;;;999.90;;
4616;SDS011;2321;42.704;23.384;2023-07-09T12:42:18;1181.17;;;999.90;;
4616;SDS011;2321;42.704;23.384;2023-07-09T12:44:51;1220.00;;;999.90;;
4616;SDS011;2321;42.704;23.384;2023-07-09T12:47:18;1277.87;;;999.90;;
4616;SDS011;2321;42.704;23.384;2023-07-09T12:49:49;1204.90;;;999.90;;
4616;SDS011;2321;42.704;23.384;2023-07-09T12:52:17;1161.43;;;999.90;;
4616;SDS011;2321;42.704;23.384;2023-07-09T12:54:52;1134.20;;;996.93;;
4616;SDS011;2321;42.704;23.384;2023-07-09T12:57:22;1159.97;;;999.90;;
4616;SDS011;2321;42.704;23.384;2023-07-09T12:59:50;1144.33;;;999.90;;
4616;SDS011;2321;42.704;23.384;2023-07-09T13:02:20;1123.80;;;977.87;;
4616;SDS011;2321;42.704;23.384;2023-07-09T13:04:50;1193.97;;;999.90;;
4616;SDS011;2321;42.704;23.384;2023-07-09T13:07:25;1250.23;;;999.90;;
4616;SDS011;2321;42.704;23.384;2023-07-09T13:09:58;1213.47;;;999.90;;
4616;SDS011;2321;42.704;23.384;2023-07-09T13:12:32;1114.87;;;977.70;;
4616;SDS011;2321;42.704;23.384;2023-07-09T13:15:01;1120.37;;;987.33;;
4616;SDS011;2321;42.704;23.384;2023-07-09T13:17:29;1148.90;;;999.90;;
4616;SDS011;2321;42.704;23.384;2023-07-09T13:19:57;1201.53;;;999.90;;
4616;SDS011;2321;42.704;23.384;2023-07-09T13:22:27;1270.83;;;999.90;;
4616;SDS011;2321;42.704;23.384;2023-07-09T13:24:55;1242.67;;;999.90;;
4616;SDS011;2321;42.704;23.384;2023-07-09T13:27:22;1241.10;;;999.90;;
4616;SDS011;2321;42.704;23.384;2023-07-09T13:29:50;1212.30;;;999.90;;
4616;SDS011;2321;42.704;23.384;2023-07-09T13:32:19;1183.83;;;999.90;;
4616;SDS011;2321;42.704;23.384;2023-07-09T13:34:46;1164.40;;;999.90;;
4616;SDS011;2321;42.704;23.384;2023-07-09T13:37:13;1151.80;;;999.90;;
4616;SDS011;2321;42.704;23.384;2023-07-09T13:39:41;1108.47;;;961.93;;
4616;SDS011;2321;42.704;23.384;2023-07-09T13:42:11;1175.47;;;999.90;;
4616;SDS011;2321;42.704;23.384;2023-07-09T13:44:39;1260.57;;;999.90;;
4616;SDS011;2321;42.704;23.384;2023-07-09T13:47:09;1242.73;;;999.90;;
4616;SDS011;2321;42.704;23.384;2023-07-09T13:49:41;1240.27;;;999.90;;
4616;SDS011;2321;42.704;23.384;2023-07-09T13:52:11;1213.57;;;999.90;;
4616;SDS011;2321;42.704;23.384;2023-07-09T13:54:42;1183.43;;;999.90;;
4616;SDS011;2321;42.704;23.384;2023-07-09T13:57:13;1184.30;;;999.90;;
4616;SDS011;2321;42.704;23.384;2023-07-09T13:59:42;1196.27;;;999.90;;
4616;SDS011;2321;42.704;23.384;2023-07-09T14:02:17;1204.03;;;999.90;;
4616;SDS011;2321;42.704;23.384;2023-07-09T14:04:50;1143.67;;;999.90;;
4616;SDS011;2321;42.704;23.384;2023-07-09T14:07:22;1163.67;;;999.90;;
4616;SDS011;2321;42.704;23.384;2023-07-09T14:09:52;1143.33;;;999.57;;
4616;SDS011;2321;42.704;23.384;2023-07-09T14:12:19;1099.10;;;982.33;;
4616;SDS011;2321;42.704;23.384;2023-07-09T14:14:47;397.10;;;363.87;;